sensor_id;sensor_type;location;lat;lon;timestamp;P1;durP1;ratioP1;P2;durP2;ratioP2
65018;SDS011;66069;51.164;-114.452;2023-08-17T00:02:13;4.63;;;3.03;;
65018;SDS011;66069;51.164;-114.452;2023-08-17T00:04:42;5.80;;;3.42;;
65018;SDS011;66069;51.164;-114.452;2023-08-17T00:07:08;5.32;;;3.53;;
65018;SDS011;66069;51.164;-114.452;2023-08-17T00:09:34;4.93;;;3.10;;
65018;SDS011;66069;51.164;-114.452;2023-08-17T00:12:00;4.88;;;3.15;;
65018;SDS011;66069;51.164;-114.452;2023-08-17T00:14:25;5.47;;;3.35;;
65018;SDS011;66069;51.164;-114.452;2023-08-17T00:16:51;5.05;;;3.42;;
65018;SDS011;66069;51.164;-114.452;2023-08-17T00:19:17;4.70;;;2.92;;
65018;SDS011;66069;51.164;-114.452;2023-08-17T00:21:44;4.95;;;3.30;;
65018;SDS011;66069;51.164;-114.452;2023-08-17T00:24:10;4.30;;;2.90;;
65018;SDS011;66069;51.164;-114.452;2023-08-17T00:26:36;4.95;;;3.17;;
65018;SDS011;66069;51.164;-114.452;2023-08-17T00:29:02;5.90;;;3.30;;
65018;SDS011;66069;51.164;-114.452;2023-08-17T00:31:28;5.50;;;3.58;;
65018;SDS011;66069;51.164;-114.452;2023-08-17T00:33:54;4.85;;;3.13;;
65018;SDS011;66069;51.164;-114.452;2023-08-17T00:36:20;4.60;;;3.08;;
65018;SDS011;66069;51.164;-114.452;2023-08-17T00:38:46;4.70;;;3.28;;
65018;SDS011;66069;51.164;-114.452;2023-08-17T00:41:11;5.80;;;3.55;;
65018;SDS011;66069;51.164;-114.452;2023-08-17T00:43:37;5.47;;;3.40;;
65018;SDS011;66069;51.164;-114.452;2023-08-17T00:46:03;5.05;;;3.20;;
65018;SDS011;66069;51.164;-114.452;2023-08-17T00:48:29;5.22;;;3.60;;
65018;SDS011;66069;51.164;-114.452;2023-08-17T00:50:56;4.88;;;3.10;;
65018;SDS011;66069;51.164;-114.452;2023-08-17T00:53:23;4.90;;;3.63;;
65018;SDS011;66069;51.164;-114.452;2023-08-17T00:55:50;4.10;;;2.70;;
65018;SDS011;66069;51.164;-114.452;2023-08-17T00:58:18;5.30;;;3.17;;
65018;SDS011;66069;51.164;-114.452;2023-08-17T01:00:44;4.60;;;3.10;;
65018;SDS011;66069;51.164;-114.452;2023-08-17T01:03:10;4.72;;;3.20;;
65018;SDS011;66069;51.164;-114.452;2023-08-17T01:05:36;4.60;;;3.05;;
65018;SDS011;66069;51.164;-114.452;2023-08-17T01:08:03;4.80;;;2.90;;
65018;SDS011;66069;51.164;-114.452;2023-08-17T01:10:35;5.03;;;3.33;;
65018;SDS011;66069;51.164;-114.452;2023-08-17T01:13:05;4.07;;;2.95;;
65018;SDS011;66069;51.164;-114.452;2023-08-17T01:15:35;4.72;;;3.08;;
65018;SDS011;66069;51.164;-114.452;2023-08-17T01:20:30;4.15;;;2.67;;
65018;SDS011;66069;51.164;-114.452;2023-08-17T01:23:02;4.80;;;3.15;;
65018;SDS011;66069;51.164;-114.452;2023-08-17T01:25:30;5.70;;;3.20;;
65018;SDS011;66069;51.164;-114.452;2023-08-17T01:27:56;4.55;;;3.22;;
65018;SDS011;66069;51.164;-114.452;2023-08-17T01:30:24;5.13;;;3.38;;
65018;SDS011;66069;51.164;-114.452;2023-08-17T01:33:06;5.03;;;3.30;;
65018;SDS011;66069;51.164;-114.452;2023-08-17T01:35:40;5.00;;;3.05;;
65018;SDS011;66069;51.164;-114.452;2023-08-17T01:38:12;4.60;;;3.00;;
65018;SDS011;66069;51.164;-114.452;2023-08-17T01:40:40;5.10;;;3.05;;
65018;SDS011;66069;51.164;-114.452;2023-08-17T01:43:07;4.65;;;3.25;;
65018;SDS011;66069;51.164;-114.452;2023-08-17T01:45:34;4.65;;;2.97;;
65018;SDS011;66069;51.164;-114.452;2023-08-17T01:48:00;4.20;;;2.92;;
65018;SDS011;66069;51.164;-114.452;2023-08-17T01:50:26;4.47;;;2.90;;
65018;SDS011;66069;51.164;-114.452;2023-08-17T01:52:52;4.82;;;2.97;;
65018;SDS011;66069;51.164;-114.452;2023-08-17T01:55:20;4.95;;;2.95;;
65018;SDS011;66069;51.164;-114.452;2023-08-17T01:57:46;5.03;;;3.10;;
65018;SDS011;66069;51.164;-114.452;2023-08-17T02:00:12;4.72;;;3.05;;
65018;SDS011;66069;51.164;-114.452;2023-08-17T02:02:38;4.57;;;3.08;;
65018;SDS011;66069;51.164;-114.452;2023-08-17T02:05:04;5.18;;;3.10;;
65018;SDS011;66069;51.164;-114.452;2023-08-17T02:07:30;4.10;;;2.70;;
65018;SDS011;66069;51.164;-114.452;2023-08-17T02:09:56;4.45;;;2.80;;
65018;SDS011;66069;51.164;-114.452;2023-08-17T02:12:22;4.22;;;2.70;;
65018;SDS011;66069;51.164;-114.452;2023-08-17T02:14:47;4.93;;;3.15;;
65018;SDS011;66069;51.164;-114.452;2023-08-17T02:17:13;4.07;;;2.80;;
65018;SDS011;66069;51.164;-114.452;2023-08-17T02:19:44;4.57;;;2.92;;
65018;SDS011;66069;51.164;-114.452;2023-08-17T02:22:10;4.35;;;2.90;;
65018;SDS011;66069;51.164;-114.452;2023-08-17T02:24:36;3.97;;;2.42;;
65018;SDS011;66069;51.164;-114.452;2023-08-17T02:27:02;3.97;;;2.50;;
65018;SDS011;66069;51.164;-114.452;2023-08-17T02:29:28;4.50;;;2.80;;
65018;SDS011;66069;51.164;-114.452;2023-08-17T02:31:54;4.20;;;2.75;;
65018;SDS011;66069;51.164;-114.452;2023-08-17T02:34:19;5.00;;;3.00;;
65018;SDS011;66069;51.164;-114.452;2023-08-17T02:36:45;4.55;;;2.75;;
65018;SDS011;66069;51.164;-114.452;2023-08-17T02:39:11;5.47;;;3.22;;
65018;SDS011;66069;51.164;-114.452;2023-08-17T02:41:37;3.92;;;2.60;;
65018;SDS011;66069;51.164;-114.452;2023-08-17T02:44:03;4.05;;;2.78;;
65018;SDS011;66069;51.164;-114.452;2023-08-17T02:46:28;4.45;;;2.97;;
65018;SDS011;66069;51.164;-114.452;2023-08-17T02:48:54;4.78;;;3.08;;
65018;SDS011;66069;51.164;-114.452;2023-08-17T02:51:20;5.05;;;2.83;;
65018;SDS011;66069;51.164;-114.452;2023-08-17T02:53:46;4.00;;;2.65;;
65018;SDS011;66069;51.164;-114.452;2023-08-17T02:56:12;4.68;;;3.05;;
65018;SDS011;66069;51.164;-114.452;2023-08-17T02:58:38;4.20;;;2.72;;
65018;SDS011;66069;51.164;-114.452;2023-08-17T03:01:07;4.38;;;2.72;;
65018;SDS011;66069;51.164;-114.452;2023-08-17T03:03:33;4.65;;;2.72;;
65018;SDS011;66069;51.164;-114.452;2023-08-17T03:05:59;5.15;;;2.50;;
65018;SDS011;66069;51.164;-114.452;2023-08-17T03:08:25;3.58;;;2.33;;
65018;SDS011;66069;51.164;-114.452;2023-08-17T03:10:50;3.75;;;2.67;;
65018;SDS011;66069;51.164;-114.452;2023-08-17T03:13:16;4.55;;;2.83;;
65018;SDS011;66069;51.164;-114.452;2023-08-17T03:15:42;3.78;;;2.72;;
65018;SDS011;66069;51.164;-114.452;2023-08-17T03:18:08;4.63;;;2.92;;
65018;SDS011;66069;51.164;-114.452;2023-08-17T03:20:34;5.20;;;3.10;;
65018;SDS011;66069;51.164;-114.452;2023-08-17T03:22:59;3.58;;;2.40;;
65018;SDS011;66069;51.164;-114.452;2023-08-17T03:25:25;3.97;;;2.60;;
65018;SDS011;66069;51.164;-114.452;2023-08-17T03:27:51;4.38;;;2.78;;
65018;SDS011;66069;51.164;-114.452;2023-08-17T03:30:17;4.18;;;2.65;;
65018;SDS011;66069;51.164;-114.452;2023-08-17T03:32:43;3.97;;;2.70;;
65018;SDS011;66069;51.164;-114.452;2023-08-17T03:35:09;4.32;;;2.72;;
65018;SDS011;66069;51.164;-114.452;2023-08-17T03:37:35;4.03;;;2.47;;
65018;SDS011;66069;51.164;-114.452;2023-08-17T03:40:00;4.32;;;2.80;;
65018;SDS011;66069;51.164;-114.452;2023-08-17T03:42:26;3.75;;;2.35;;
65018;SDS011;66069;51.164;-114.452;2023-08-17T03:44:53;4.30;;;2.42;;
65018;SDS011;66069;51.164;-114.452;2023-08-17T03:47:19;3.70;;;2.63;;
65018;SDS011;66069;51.164;-114.452;2023-08-17T03:49:44;3.78;;;2.70;;
65018;SDS011;66069;51.164;-114.452;2023-08-17T03:52:11;3.88;;;2.30;;
65018;SDS011;66069;51.164;-114.452;2023-08-17T03:54:37;3.47;;;2.30;;
65018;SDS011;66069;51.164;-114.452;2023-08-17T03:57:03;4.32;;;2.83;;
65018;SDS011;66069;51.164;-114.452;2023-08-17T03:59:29;4.28;;;2.70;;
65018;SDS011;66069;51.164;-114.452;2023-08-17T04:01:55;3.78;;;2.47;;
65018;SDS011;66069;51.164;-114.452;2023-08-17T04:04:21;4.57;;;2.78;;
65018;SDS011;66069;51.164;-114.452;2023-08-17T04:06:47;3.88;;;2.47;;
65018;SDS011;66069;51.164;-114.452;2023-08-17T04:09:13;3.72;;;2.40;;
65018;SDS011;66069;51.164;-114.452;2023-08-17T04:11:38;3.97;;;2.42;;
65018;SDS011;66069;51.164;-114.452;2023-08-17T04:14:04;4.35;;;2.45;;
65018;SDS011;66069;51.164;-114.452;2023-08-17T04:16:30;4.15;;;2.58;;
65018;SDS011;66069;51.164;-114.452;2023-08-17T04:18:56;3.70;;;2.20;;
65018;SDS011;66069;51.164;-114.452;2023-08-17T04:21:22;4.22;;;2.47;;
65018;SDS011;66069;51.164;-114.452;2023-08-17T04:23:48;4.40;;;2.60;;
65018;SDS011;66069;51.164;-114.452;2023-08-17T04:26:13;4.30;;;2.78;;
65018;SDS011;66069;51.164;-114.452;2023-08-17T04:28:39;3.53;;;2.13;;
65018;SDS011;66069;51.164;-114.452;2023-08-17T04:31:05;4.10;;;2.38;;
65018;SDS011;66069;51.164;-114.452;2023-08-17T04:33:31;3.47;;;2.40;;
65018;SDS011;66069;51.164;-114.452;2023-08-17T04:35:57;3.70;;;2.80;;
65018;SDS011;66069;51.164;-114.452;2023-08-17T04:38:25;3.92;;;2.50;;
65018;SDS011;66069;51.164;-114.452;2023-08-17T04:40:50;4.03;;;2.85;;
65018;SDS011;66069;51.164;-114.452;2023-08-17T04:43:16;3.50;;;2.40;;
65018;SDS011;66069;51.164;-114.452;2023-08-17T04:45:42;3.58;;;2.50;;
65018;SDS011;66069;51.164;-114.452;2023-08-17T04:48:09;4.10;;;2.53;;
65018;SDS011;66069;51.164;-114.452;2023-08-17T04:50:35;3.17;;;1.90;;
65018;SDS011;66069;51.164;-114.452;2023-08-17T04:53:01;3.60;;;2.28;;
65018;SDS011;66069;51.164;-114.452;2023-08-17T04:55:28;4.25;;;2.65;;
65018;SDS011;66069;51.164;-114.452;2023-08-17T04:57:53;4.78;;;2.65;;
65018;SDS011;66069;51.164;-114.452;2023-08-17T05:00:20;3.75;;;2.30;;
65018;SDS011;66069;51.164;-114.452;2023-08-17T05:02:52;3.75;;;2.33;;
65018;SDS011;66069;51.164;-114.452;2023-08-17T05:05:18;3.70;;;2.30;;
65018;SDS011;66069;51.164;-114.452;2023-08-17T05:07:44;4.07;;;2.55;;
65018;SDS011;66069;51.164;-114.452;2023-08-17T05:10:10;3.70;;;2.50;;
65018;SDS011;66069;51.164;-114.452;2023-08-17T05:12:36;3.45;;;2.22;;
65018;SDS011;66069;51.164;-114.452;2023-08-17T05:15:02;4.00;;;2.42;;
65018;SDS011;66069;51.164;-114.452;2023-08-17T05:17:27;3.33;;;2.10;;
65018;SDS011;66069;51.164;-114.452;2023-08-17T05:19:53;3.42;;;2.15;;
65018;SDS011;66069;51.164;-114.452;2023-08-17T05:22:19;3.50;;;2.33;;
65018;SDS011;66069;51.164;-114.452;2023-08-17T05:24:45;3.38;;;2.30;;
65018;SDS011;66069;51.164;-114.452;2023-08-17T05:27:11;3.65;;;2.22;;
65018;SDS011;66069;51.164;-114.452;2023-08-17T05:29:37;4.05;;;2.72;;
65018;SDS011;66069;51.164;-114.452;2023-08-17T05:32:02;3.53;;;2.40;;
65018;SDS011;66069;51.164;-114.452;2023-08-17T05:34:28;3.85;;;2.30;;
65018;SDS011;66069;51.164;-114.452;2023-08-17T05:36:54;3.80;;;2.38;;
65018;SDS011;66069;51.164;-114.452;2023-08-17T05:39:20;3.63;;;2.03;;
65018;SDS011;66069;51.164;-114.452;2023-08-17T05:41:46;3.53;;;2.20;;
65018;SDS011;66069;51.164;-114.452;2023-08-17T05:44:12;3.13;;;2.03;;
65018;SDS011;66069;51.164;-114.452;2023-08-17T05:46:39;3.42;;;2.40;;
65018;SDS011;66069;51.164;-114.452;2023-08-17T05:49:05;3.70;;;2.17;;
65018;SDS011;66069;51.164;-114.452;2023-08-17T05:51:31;3.90;;;2.47;;
65018;SDS011;66069;51.164;-114.452;2023-08-17T05:53:57;3.20;;;2.22;;
65018;SDS011;66069;51.164;-114.452;2023-08-17T05:56:23;4.00;;;2.35;;
65018;SDS011;66069;51.164;-114.452;2023-08-17T05:58:48;3.17;;;2.05;;
65018;SDS011;66069;51.164;-114.452;2023-08-17T06:01:14;4.20;;;2.40;;
65018;SDS011;66069;51.164;-114.452;2023-08-17T06:03:40;3.40;;;2.28;;
65018;SDS011;66069;51.164;-114.452;2023-08-17T06:06:06;3.88;;;2.10;;
65018;SDS011;66069;51.164;-114.452;2023-08-17T06:08:32;3.40;;;2.20;;
65018;SDS011;66069;51.164;-114.452;2023-08-17T06:10:58;3.67;;;2.20;;
65018;SDS011;66069;51.164;-114.452;2023-08-17T06:13:24;4.38;;;2.38;;
65018;SDS011;66069;51.164;-114.452;2023-08-17T06:15:50;3.92;;;2.30;;
65018;SDS011;66069;51.164;-114.452;2023-08-17T06:18:16;3.65;;;2.50;;
65018;SDS011;66069;51.164;-114.452;2023-08-17T06:20:42;3.58;;;2.20;;
65018;SDS011;66069;51.164;-114.452;2023-08-17T06:23:08;3.80;;;2.20;;
65018;SDS011;66069;51.164;-114.452;2023-08-17T06:25:34;4.13;;;2.30;;
65018;SDS011;66069;51.164;-114.452;2023-08-17T06:28:00;4.25;;;2.47;;
65018;SDS011;66069;51.164;-114.452;2023-08-17T06:30:26;3.20;;;2.05;;
65018;SDS011;66069;51.164;-114.452;2023-08-17T06:32:52;3.92;;;2.20;;
65018;SDS011;66069;51.164;-114.452;2023-08-17T06:35:18;3.45;;;2.30;;
65018;SDS011;66069;51.164;-114.452;2023-08-17T06:37:43;3.78;;;2.10;;
65018;SDS011;66069;51.164;-114.452;2023-08-17T06:40:09;3.55;;;2.28;;
65018;SDS011;66069;51.164;-114.452;2023-08-17T06:42:35;3.58;;;2.38;;
65018;SDS011;66069;51.164;-114.452;2023-08-17T06:45:01;4.13;;;2.20;;
65018;SDS011;66069;51.164;-114.452;2023-08-17T06:47:27;3.50;;;2.20;;
65018;SDS011;66069;51.164;-114.452;2023-08-17T06:49:54;3.67;;;1.90;;
65018;SDS011;66069;51.164;-114.452;2023-08-17T06:52:20;3.42;;;2.13;;
65018;SDS011;66069;51.164;-114.452;2023-08-17T06:54:45;3.97;;;2.17;;
65018;SDS011;66069;51.164;-114.452;2023-08-17T06:57:11;3.88;;;2.22;;
65018;SDS011;66069;51.164;-114.452;2023-08-17T06:59:37;3.78;;;2.17;;
65018;SDS011;66069;51.164;-114.452;2023-08-17T07:02:03;4.18;;;2.58;;
65018;SDS011;66069;51.164;-114.452;2023-08-17T07:04:29;3.65;;;2.42;;
65018;SDS011;66069;51.164;-114.452;2023-08-17T07:06:55;3.95;;;2.35;;
65018;SDS011;66069;51.164;-114.452;2023-08-17T07:09:20;3.72;;;2.53;;
65018;SDS011;66069;51.164;-114.452;2023-08-17T07:11:46;3.78;;;2.40;;
65018;SDS011;66069;51.164;-114.452;2023-08-17T07:14:12;3.33;;;2.10;;
65018;SDS011;66069;51.164;-114.452;2023-08-17T07:16:38;3.22;;;2.10;;
65018;SDS011;66069;51.164;-114.452;2023-08-17T07:19:04;3.78;;;2.25;;
65018;SDS011;66069;51.164;-114.452;2023-08-17T07:21:30;3.65;;;2.15;;
65018;SDS011;66069;51.164;-114.452;2023-08-17T07:23:56;3.45;;;2.03;;
65018;SDS011;66069;51.164;-114.452;2023-08-17T07:26:22;4.18;;;2.47;;
65018;SDS011;66069;51.164;-114.452;2023-08-17T07:28:48;4.00;;;2.15;;
65018;SDS011;66069;51.164;-114.452;2023-08-17T07:31:14;4.03;;;2.70;;
65018;SDS011;66069;51.164;-114.452;2023-08-17T07:33:40;3.70;;;2.17;;
65018;SDS011;66069;51.164;-114.452;2023-08-17T07:36:06;3.08;;;1.92;;
65018;SDS011;66069;51.164;-114.452;2023-08-17T07:38:32;3.47;;;2.22;;
65018;SDS011;66069;51.164;-114.452;2023-08-17T07:40:58;3.78;;;2.30;;
65018;SDS011;66069;51.164;-114.452;2023-08-17T07:43:24;3.90;;;2.25;;
65018;SDS011;66069;51.164;-114.452;2023-08-17T07:46:07;4.18;;;2.58;;
65018;SDS011;66069;51.164;-114.452;2023-08-17T07:48:33;3.80;;;2.40;;
65018;SDS011;66069;51.164;-114.452;2023-08-17T07:50:59;4.18;;;2.30;;
65018;SDS011;66069;51.164;-114.452;2023-08-17T07:53:25;3.60;;;2.08;;
65018;SDS011;66069;51.164;-114.452;2023-08-17T07:55:51;3.67;;;2.05;;
65018;SDS011;66069;51.164;-114.452;2023-08-17T07:58:16;3.88;;;2.38;;
65018;SDS011;66069;51.164;-114.452;2023-08-17T08:00:42;3.15;;;2.05;;
65018;SDS011;66069;51.164;-114.452;2023-08-17T08:03:08;3.90;;;2.53;;
65018;SDS011;66069;51.164;-114.452;2023-08-17T08:05:34;3.80;;;2.38;;
65018;SDS011;66069;51.164;-114.452;2023-08-17T08:08:00;3.92;;;2.40;;
65018;SDS011;66069;51.164;-114.452;2023-08-17T08:10:26;3.90;;;2.35;;
65018;SDS011;66069;51.164;-114.452;2023-08-17T08:12:53;3.63;;;2.38;;
65018;SDS011;66069;51.164;-114.452;2023-08-17T08:15:18;3.55;;;2.17;;
65018;SDS011;66069;51.164;-114.452;2023-08-17T08:17:44;3.70;;;2.33;;
65018;SDS011;66069;51.164;-114.452;2023-08-17T08:20:10;3.30;;;2.08;;
65018;SDS011;66069;51.164;-114.452;2023-08-17T08:22:36;3.65;;;2.47;;
65018;SDS011;66069;51.164;-114.452;2023-08-17T08:25:02;3.63;;;2.45;;
65018;SDS011;66069;51.164;-114.452;2023-08-17T08:27:28;3.88;;;2.50;;
65018;SDS011;66069;51.164;-114.452;2023-08-17T08:29:54;3.90;;;2.45;;
65018;SDS011;66069;51.164;-114.452;2023-08-17T08:32:19;3.53;;;2.50;;
65018;SDS011;66069;51.164;-114.452;2023-08-17T08:34:45;3.42;;;2.20;;
65018;SDS011;66069;51.164;-114.452;2023-08-17T08:37:11;4.03;;;2.55;;
65018;SDS011;66069;51.164;-114.452;2023-08-17T08:39:52;3.35;;;2.30;;
65018;SDS011;66069;51.164;-114.452;2023-08-17T08:42:21;3.60;;;2.40;;
65018;SDS011;66069;51.164;-114.452;2023-08-17T08:44:48;3.83;;;2.40;;
65018;SDS011;66069;51.164;-114.452;2023-08-17T08:47:15;4.05;;;2.67;;
65018;SDS011;66069;51.164;-114.452;2023-08-17T08:49:45;3.92;;;2.45;;
65018;SDS011;66069;51.164;-114.452;2023-08-17T08:52:23;3.45;;;2.22;;
65018;SDS011;66069;51.164;-114.452;2023-08-17T08:54:49;3.80;;;2.45;;
65018;SDS011;66069;51.164;-114.452;2023-08-17T08:57:16;3.83;;;2.45;;
65018;SDS011;66069;51.164;-114.452;2023-08-17T08:59:42;4.03;;;2.25;;
65018;SDS011;66069;51.164;-114.452;2023-08-17T09:02:12;4.65;;;2.83;;
65018;SDS011;66069;51.164;-114.452;2023-08-17T09:04:39;3.45;;;2.22;;
65018;SDS011;66069;51.164;-114.452;2023-08-17T09:07:06;3.58;;;2.25;;
65018;SDS011;66069;51.164;-114.452;2023-08-17T09:09:32;3.80;;;2.42;;
65018;SDS011;66069;51.164;-114.452;2023-08-17T09:11:58;3.58;;;2.40;;
65018;SDS011;66069;51.164;-114.452;2023-08-17T09:14:24;3.55;;;2.28;;
65018;SDS011;66069;51.164;-114.452;2023-08-17T09:16:50;3.80;;;2.33;;
65018;SDS011;66069;51.164;-114.452;2023-08-17T09:19:16;4.35;;;2.95;;
65018;SDS011;66069;51.164;-114.452;2023-08-17T09:21:42;4.28;;;2.30;;
65018;SDS011;66069;51.164;-114.452;2023-08-17T09:24:08;3.90;;;2.63;;
65018;SDS011;66069;51.164;-114.452;2023-08-17T09:26:34;3.63;;;2.33;;
65018;SDS011;66069;51.164;-114.452;2023-08-17T09:29:02;4.25;;;2.70;;
65018;SDS011;66069;51.164;-114.452;2023-08-17T09:31:41;3.47;;;2.10;;
65018;SDS011;66069;51.164;-114.452;2023-08-17T09:34:07;4.35;;;2.45;;
65018;SDS011;66069;51.164;-114.452;2023-08-17T09:36:33;3.80;;;2.38;;
65018;SDS011;66069;51.164;-114.452;2023-08-17T09:39:00;3.58;;;2.58;;
65018;SDS011;66069;51.164;-114.452;2023-08-17T09:41:26;3.63;;;2.45;;
65018;SDS011;66069;51.164;-114.452;2023-08-17T09:43:54;5.07;;;2.50;;
65018;SDS011;66069;51.164;-114.452;2023-08-17T09:46:20;4.15;;;2.35;;
65018;SDS011;66069;51.164;-114.452;2023-08-17T09:48:47;3.45;;;2.25;;
65018;SDS011;66069;51.164;-114.452;2023-08-17T09:51:16;4.25;;;2.60;;
65018;SDS011;66069;51.164;-114.452;2023-08-17T09:53:42;3.38;;;2.22;;
65018;SDS011;66069;51.164;-114.452;2023-08-17T09:56:08;4.43;;;2.72;;
65018;SDS011;66069;51.164;-114.452;2023-08-17T09:58:36;3.80;;;2.67;;
65018;SDS011;66069;51.164;-114.452;2023-08-17T10:01:05;3.72;;;2.60;;
65018;SDS011;66069;51.164;-114.452;2023-08-17T10:03:33;3.40;;;2.38;;
65018;SDS011;66069;51.164;-114.452;2023-08-17T10:06:01;3.83;;;2.38;;
65018;SDS011;66069;51.164;-114.452;2023-08-17T10:08:30;3.88;;;2.45;;
65018;SDS011;66069;51.164;-114.452;2023-08-17T10:10:56;4.00;;;2.67;;
65018;SDS011;66069;51.164;-114.452;2023-08-17T10:13:36;4.50;;;2.85;;
65018;SDS011;66069;51.164;-114.452;2023-08-17T10:16:07;4.20;;;2.53;;
65018;SDS011;66069;51.164;-114.452;2023-08-17T10:18:37;3.70;;;2.47;;
65018;SDS011;66069;51.164;-114.452;2023-08-17T10:21:08;4.28;;;2.53;;
65018;SDS011;66069;51.164;-114.452;2023-08-17T10:23:35;4.22;;;2.55;;
65018;SDS011;66069;51.164;-114.452;2023-08-17T10:26:02;3.53;;;2.40;;
65018;SDS011;66069;51.164;-114.452;2023-08-17T10:28:29;4.18;;;2.85;;
65018;SDS011;66069;51.164;-114.452;2023-08-17T10:30:56;3.85;;;2.38;;
65018;SDS011;66069;51.164;-114.452;2023-08-17T10:33:22;4.00;;;2.50;;
65018;SDS011;66069;51.164;-114.452;2023-08-17T10:35:48;3.78;;;2.45;;
65018;SDS011;66069;51.164;-114.452;2023-08-17T10:38:15;3.75;;;2.38;;
65018;SDS011;66069;51.164;-114.452;2023-08-17T10:40:41;3.63;;;2.38;;
65018;SDS011;66069;51.164;-114.452;2023-08-17T10:43:07;4.32;;;2.80;;
65018;SDS011;66069;51.164;-114.452;2023-08-17T10:45:34;3.85;;;2.55;;
65018;SDS011;66069;51.164;-114.452;2023-08-17T10:50:34;3.83;;;2.30;;
65018;SDS011;66069;51.164;-114.452;2023-08-17T10:53:04;3.95;;;2.60;;
65018;SDS011;66069;51.164;-114.452;2023-08-17T10:55:37;4.00;;;2.33;;
65018;SDS011;66069;51.164;-114.452;2023-08-17T10:58:05;3.92;;;2.30;;
65018;SDS011;66069;51.164;-114.452;2023-08-17T11:00:37;3.92;;;2.60;;
65018;SDS011;66069;51.164;-114.452;2023-08-17T11:03:07;4.45;;;2.70;;
65018;SDS011;66069;51.164;-114.452;2023-08-17T11:08:02;3.92;;;2.55;;
65018;SDS011;66069;51.164;-114.452;2023-08-17T11:10:28;5.43;;;3.05;;
65018;SDS011;66069;51.164;-114.452;2023-08-17T11:12:55;3.75;;;2.58;;
65018;SDS011;66069;51.164;-114.452;2023-08-17T11:15:39;4.40;;;2.80;;
65018;SDS011;66069;51.164;-114.452;2023-08-17T11:18:08;3.70;;;2.50;;
65018;SDS011;66069;51.164;-114.452;2023-08-17T11:20:34;3.65;;;2.58;;
65018;SDS011;66069;51.164;-114.452;2023-08-17T11:23:04;4.15;;;2.53;;
65018;SDS011;66069;51.164;-114.452;2023-08-17T11:25:31;3.70;;;2.40;;
65018;SDS011;66069;51.164;-114.452;2023-08-17T11:27:57;3.85;;;2.53;;
65018;SDS011;66069;51.164;-114.452;2023-08-17T11:30:23;3.65;;;2.42;;
65018;SDS011;66069;51.164;-114.452;2023-08-17T11:32:50;4.60;;;2.90;;
65018;SDS011;66069;51.164;-114.452;2023-08-17T11:35:17;4.35;;;2.65;;
65018;SDS011;66069;51.164;-114.452;2023-08-17T11:37:43;5.18;;;2.90;;
65018;SDS011;66069;51.164;-114.452;2023-08-17T11:40:12;4.55;;;2.95;;
65018;SDS011;66069;51.164;-114.452;2023-08-17T11:42:38;4.07;;;2.80;;
65018;SDS011;66069;51.164;-114.452;2023-08-17T11:45:04;3.88;;;2.67;;
65018;SDS011;66069;51.164;-114.452;2023-08-17T11:47:30;4.57;;;2.50;;
65018;SDS011;66069;51.164;-114.452;2023-08-17T11:50:00;4.47;;;2.78;;
65018;SDS011;66069;51.164;-114.452;2023-08-17T11:52:27;3.72;;;2.53;;
65018;SDS011;66069;51.164;-114.452;2023-08-17T11:54:56;4.40;;;2.83;;
65018;SDS011;66069;51.164;-114.452;2023-08-17T11:57:22;4.05;;;2.65;;
65018;SDS011;66069;51.164;-114.452;2023-08-17T11:59:48;4.60;;;2.67;;
65018;SDS011;66069;51.164;-114.452;2023-08-17T12:02:14;3.92;;;2.58;;
65018;SDS011;66069;51.164;-114.452;2023-08-17T12:04:40;4.15;;;2.67;;
65018;SDS011;66069;51.164;-114.452;2023-08-17T12:07:06;4.20;;;2.83;;
65018;SDS011;66069;51.164;-114.452;2023-08-17T12:09:32;3.88;;;2.88;;
65018;SDS011;66069;51.164;-114.452;2023-08-17T12:11:59;4.80;;;2.95;;
65018;SDS011;66069;51.164;-114.452;2023-08-17T12:14:26;3.90;;;2.72;;
65018;SDS011;66069;51.164;-114.452;2023-08-17T12:16:52;4.05;;;2.70;;
65018;SDS011;66069;51.164;-114.452;2023-08-17T12:19:21;4.68;;;2.90;;
65018;SDS011;66069;51.164;-114.452;2023-08-17T12:21:49;4.50;;;2.70;;
65018;SDS011;66069;51.164;-114.452;2023-08-17T12:24:15;4.90;;;2.80;;
65018;SDS011;66069;51.164;-114.452;2023-08-17T12:26:42;4.38;;;3.08;;
65018;SDS011;66069;51.164;-114.452;2023-08-17T12:29:08;4.53;;;3.15;;
65018;SDS011;66069;51.164;-114.452;2023-08-17T12:31:34;5.03;;;3.03;;
65018;SDS011;66069;51.164;-114.452;2023-08-17T12:34:00;4.45;;;3.03;;
65018;SDS011;66069;51.164;-114.452;2023-08-17T12:36:26;5.03;;;3.15;;
65018;SDS011;66069;51.164;-114.452;2023-08-17T12:38:52;4.50;;;3.17;;
65018;SDS011;66069;51.164;-114.452;2023-08-17T12:41:18;4.82;;;3.30;;
65018;SDS011;66069;51.164;-114.452;2023-08-17T12:43:44;5.25;;;3.40;;
65018;SDS011;66069;51.164;-114.452;2023-08-17T12:46:10;4.80;;;3.38;;
65018;SDS011;66069;51.164;-114.452;2023-08-17T12:48:39;5.60;;;3.25;;
65018;SDS011;66069;51.164;-114.452;2023-08-17T12:51:04;4.68;;;3.40;;
65018;SDS011;66069;51.164;-114.452;2023-08-17T12:53:30;5.28;;;3.50;;
65018;SDS011;66069;51.164;-114.452;2023-08-17T12:55:56;4.43;;;2.88;;
65018;SDS011;66069;51.164;-114.452;2023-08-17T12:58:22;5.45;;;3.35;;
65018;SDS011;66069;51.164;-114.452;2023-08-17T13:00:48;5.68;;;3.60;;
65018;SDS011;66069;51.164;-114.452;2023-08-17T13:03:16;4.80;;;3.38;;
65018;SDS011;66069;51.164;-114.452;2023-08-17T13:05:42;4.85;;;3.22;;
65018;SDS011;66069;51.164;-114.452;2023-08-17T13:08:08;6.05;;;3.38;;
65018;SDS011;66069;51.164;-114.452;2023-08-17T13:10:36;4.88;;;3.40;;
65018;SDS011;66069;51.164;-114.452;2023-08-17T13:13:02;5.80;;;3.75;;
65018;SDS011;66069;51.164;-114.452;2023-08-17T13:15:29;5.10;;;3.38;;
65018;SDS011;66069;51.164;-114.452;2023-08-17T13:17:55;5.18;;;3.80;;
65018;SDS011;66069;51.164;-114.452;2023-08-17T13:20:21;5.43;;;3.70;;
65018;SDS011;66069;51.164;-114.452;2023-08-17T13:22:47;5.72;;;3.90;;
65018;SDS011;66069;51.164;-114.452;2023-08-17T13:25:12;5.45;;;4.15;;
65018;SDS011;66069;51.164;-114.452;2023-08-17T13:27:38;5.45;;;3.53;;
65018;SDS011;66069;51.164;-114.452;2023-08-17T13:30:04;6.05;;;3.80;;
65018;SDS011;66069;51.164;-114.452;2023-08-17T13:32:30;6.50;;;3.92;;
65018;SDS011;66069;51.164;-114.452;2023-08-17T13:34:56;5.53;;;3.83;;
65018;SDS011;66069;51.164;-114.452;2023-08-17T13:37:22;5.57;;;3.70;;
65018;SDS011;66069;51.164;-114.452;2023-08-17T13:39:48;5.72;;;4.13;;
65018;SDS011;66069;51.164;-114.452;2023-08-17T13:42:14;4.82;;;3.45;;
65018;SDS011;66069;51.164;-114.452;2023-08-17T13:44:40;5.65;;;3.75;;
65018;SDS011;66069;51.164;-114.452;2023-08-17T13:47:06;4.88;;;3.55;;
65018;SDS011;66069;51.164;-114.452;2023-08-17T13:49:31;6.72;;;4.25;;
65018;SDS011;66069;51.164;-114.452;2023-08-17T13:51:57;7.25;;;4.10;;
65018;SDS011;66069;51.164;-114.452;2023-08-17T13:54:24;5.88;;;4.00;;
65018;SDS011;66069;51.164;-114.452;2023-08-17T13:56:50;5.07;;;3.33;;
65018;SDS011;66069;51.164;-114.452;2023-08-17T13:59:16;5.95;;;4.28;;
65018;SDS011;66069;51.164;-114.452;2023-08-17T14:01:41;6.05;;;3.85;;
65018;SDS011;66069;51.164;-114.452;2023-08-17T14:04:07;5.15;;;3.72;;
65018;SDS011;66069;51.164;-114.452;2023-08-17T14:06:39;7.75;;;4.63;;
65018;SDS011;66069;51.164;-114.452;2023-08-17T14:09:06;5.43;;;3.70;;
65018;SDS011;66069;51.164;-114.452;2023-08-17T14:11:32;6.47;;;4.80;;
65018;SDS011;66069;51.164;-114.452;2023-08-17T14:13:58;5.97;;;4.05;;